createdAt,value
2019-02-16T00:00:32.289Z,0
2019-02-16T00:01:33.018Z,0
2019-02-16T00:02:33.757Z,0
2019-02-16T00:03:34.483Z,0
2019-02-16T00:04:35.251Z,0
2019-02-16T00:05:35.983Z,0
2019-02-16T00:06:36.745Z,0
2019-02-16T00:07:37.460Z,0
2019-02-16T00:08:38.186Z,0
2019-02-16T00:09:38.913Z,0
2019-02-16T00:10:39.634Z,0
2019-02-16T00:11:40.416Z,0
2019-02-16T00:12:41.128Z,0
2019-02-16T00:13:41.855Z,0
2019-02-16T00:14:42.589Z,0
2019-02-16T00:15:43.316Z,0
2019-02-16T00:16:45.126Z,0
2019-02-16T00:17:46.129Z,0
2019-02-16T00:20:02.341Z,0
2019-02-16T00:21:04.294Z,0
2019-02-16T00:22:03.943Z,0
2019-02-16T00:23:04.665Z,0
2019-02-16T00:24:05.386Z,0
2019-02-16T00:25:06.108Z,0
2019-02-16T00:26:06.828Z,0
2019-02-16T00:27:07.602Z,0
2019-02-16T00:28:08.336Z,0
2019-02-16T00:29:09.061Z,0
2019-02-16T00:30:09.829Z,0
2019-02-16T00:31:10.557Z,0
2019-02-16T00:32:11.435Z,0
2019-02-16T00:35:43.358Z,0
2019-02-16T00:36:44.377Z,0
2019-02-16T00:37:45.192Z,0
2019-02-16T00:38:45.963Z,0
2019-02-16T00:39:46.690Z,0
2019-02-16T00:40:47.436Z,0
2019-02-16T00:41:48.165Z,0
2019-02-16T00:42:48.888Z,0
2019-02-16T00:43:49.666Z,0
2019-02-16T00:44:50.382Z,0
2019-02-16T00:45:51.102Z,0
2019-02-16T00:46:51.839Z,0
2019-02-16T00:47:52.549Z,0
2019-02-16T00:48:53.586Z,0
2019-02-16T00:49:54.304Z,0
2019-02-16T00:50:55.019Z,0
2019-02-16T00:51:55.755Z,0
2019-02-16T00:52:56.480Z,0
2019-02-16T00:53:57.181Z,0
2019-02-16T00:54:58.181Z,0
2019-02-16T00:55:59.206Z,0
2019-02-16T00:56:59.939Z,0
2019-02-16T00:58:00.662Z,0
2019-02-16T00:59:01.377Z,0
2019-02-16T01:00:02.098Z,0
2019-02-16T01:01:02.894Z,0
2019-02-16T01:03:19.090Z,0
2019-02-16T01:04:19.814Z,0
2019-02-16T01:05:20.582Z,0
2019-02-16T01:06:21.357Z,0
2019-02-16T01:07:22.089Z,0
2019-02-16T01:08:22.811Z,0
2019-02-16T01:09:23.547Z,0
2019-02-16T01:11:39.795Z,0
2019-02-16T01:12:40.533Z,0
2019-02-16T01:13:41.254Z,0
2019-02-16T01:14:41.985Z,0
2019-02-16T01:15:42.700Z,0
2019-02-16T01:16:43.730Z,0
2019-02-16T01:17:44.453Z,0
2019-02-16T01:18:45.426Z,0
2019-02-16T01:19:46.148Z,0
2019-02-16T01:20:47.197Z,0
2019-02-16T01:21:48.087Z,0
2019-02-16T01:22:48.693Z,0
2019-02-16T01:23:49.407Z,0
2019-02-16T01:24:50.123Z,0
2019-02-16T01:25:50.849Z,0
2019-02-16T01:26:51.632Z,0
2019-02-16T01:27:52.361Z,0
2019-02-16T01:28:53.199Z,0
2019-02-16T01:29:53.924Z,0
2019-02-16T01:30:54.655Z,0
2019-02-16T01:31:55.438Z,0
2019-02-16T01:32:56.169Z,0
2019-02-16T01:33:56.944Z,0
2019-02-16T01:34:57.956Z,0
2019-02-16T01:37:14.160Z,0
2019-02-16T01:38:14.941Z,0
2019-02-16T01:39:15.744Z,0
2019-02-16T01:40:16.467Z,0
2019-02-16T01:41:17.180Z,0
2019-02-16T01:42:17.905Z,0
2019-02-16T01:43:18.627Z,0
2019-02-16T01:44:19.397Z,0
2019-02-16T01:45:20.133Z,0
2019-02-16T01:46:20.840Z,0
2019-02-16T01:47:21.572Z,0
2019-02-16T01:48:22.294Z,0
2019-02-16T01:49:23.070Z,0
2019-02-16T01:50:23.790Z,0
2019-02-16T01:51:31.718Z,0
2019-02-16T01:52:25.324Z,0
2019-02-16T01:53:26.065Z,0
2019-02-16T01:54:26.807Z,0
2019-02-16T01:55:27.652Z,0
2019-02-16T01:57:43.897Z,0
2019-02-16T01:58:44.619Z,0
2019-02-16T01:59:45.354Z,0
2019-02-16T02:00:46.414Z,0
2019-02-16T02:01:47.239Z,0
2019-02-16T02:02:47.922Z,0
2019-02-16T02:03:48.644Z,0
2019-02-16T02:04:49.374Z,0
2019-02-16T02:05:50.107Z,0
2019-02-16T02:06:50.884Z,0
2019-02-16T02:07:51.625Z,0
2019-02-16T02:08:52.342Z,0
2019-02-16T02:09:53.350Z,0
2019-02-16T02:10:54.336Z,0
2019-02-16T02:11:55.127Z,0
2019-02-16T02:12:55.849Z,0
2019-02-16T02:13:57.798Z,0
2019-02-16T02:14:58.946Z,0
2019-02-16T02:15:59.878Z,0
2019-02-16T02:17:00.668Z,0
2019-02-16T02:18:01.398Z,0
2019-02-16T02:19:02.115Z,0
2019-02-16T02:20:03.156Z,0
2019-02-16T02:22:19.368Z,0
2019-02-16T02:23:20.092Z,0
2019-02-16T02:24:20.871Z,0
2019-02-16T02:25:21.794Z,0
2019-02-16T02:26:22.517Z,0
2019-02-16T02:27:23.245Z,0
2019-02-16T02:28:24.057Z,0
2019-02-16T02:30:40.257Z,0
2019-02-16T02:31:41.242Z,0
2019-02-16T02:32:41.964Z,0
2019-02-16T02:33:42.754Z,0
2019-02-16T02:34:43.489Z,0
2019-02-16T02:35:44.208Z,0
2019-02-16T02:38:01.371Z,0
2019-02-16T02:39:02.146Z,0
2019-02-16T02:40:02.893Z,0
2019-02-16T02:41:03.604Z,0
2019-02-16T02:42:04.333Z,0
2019-02-16T02:43:05.055Z,0
2019-02-16T02:44:05.843Z,0
2019-02-16T02:45:06.571Z,0
2019-02-16T02:46:07.335Z,0
2019-02-16T02:48:23.540Z,0
2019-02-16T02:49:24.308Z,0
2019-02-16T02:50:25.036Z,0
2019-02-16T02:51:25.763Z,0
2019-02-16T02:53:42.118Z,0
2019-02-16T02:54:43.095Z,0
2019-02-16T02:55:43.834Z,0
2019-02-16T02:56:44.552Z,0
2019-02-16T02:57:45.285Z,0
2019-02-16T02:58:46.067Z,0
2019-02-16T02:59:47.279Z,0
2019-02-16T03:00:47.581Z,0
2019-02-16T03:01:48.305Z,0
2019-02-16T03:02:49.314Z,0
2019-02-16T03:03:50.048Z,0
2019-02-16T03:04:50.778Z,0
2019-02-16T03:05:51.564Z,0
2019-02-16T03:06:52.296Z,0
2019-02-16T03:07:53.007Z,0
2019-02-16T03:08:53.732Z,0
2019-02-16T03:09:54.467Z,0
2019-02-16T03:10:55.233Z,0
2019-02-16T03:11:55.949Z,0
2019-02-16T03:12:56.737Z,0
2019-02-16T03:13:57.468Z,0
2019-02-16T03:14:58.213Z,0
2019-02-16T03:15:58.999Z,0
2019-02-16T03:16:59.715Z,0
2019-02-16T03:18:00.869Z,0
2019-02-16T03:19:01.575Z,0
2019-02-16T03:20:02.338Z,0
2019-02-16T03:21:03.048Z,0
2019-02-16T03:23:19.309Z,0
2019-02-16T03:24:20.015Z,0
2019-02-16T03:25:21.073Z,0
2019-02-16T03:26:21.791Z,0
2019-02-16T03:27:22.513Z,0
2019-02-16T03:28:23.285Z,0
2019-02-16T03:30:39.543Z,0
2019-02-16T03:31:40.296Z,0
2019-02-16T03:32:41.014Z,0
2019-02-16T03:33:41.977Z,0
2019-02-16T03:34:42.625Z,0
2019-02-16T03:35:43.351Z,0
2019-02-16T03:36:44.066Z,0
2019-02-16T03:37:44.796Z,0
2019-02-16T03:38:45.871Z,0
2019-02-16T03:39:46.603Z,0
2019-02-16T03:42:02.807Z,0
2019-02-16T03:43:03.531Z,0
2019-02-16T03:44:04.286Z,0
2019-02-16T03:45:05.086Z,0
2019-02-16T03:46:05.801Z,0
2019-02-16T03:48:22.011Z,0
2019-02-16T03:49:22.728Z,0
2019-02-16T03:50:23.496Z,0
2019-02-16T03:51:24.229Z,0
2019-02-16T03:52:25.292Z,0
2019-02-16T03:53:26.012Z,0
2019-02-16T03:54:26.974Z,0
2019-02-16T03:56:43.524Z,0
2019-02-16T03:57:44.262Z,0
2019-02-16T03:58:44.986Z,0
2019-02-16T03:59:45.713Z,0
2019-02-16T04:00:46.455Z,0
2019-02-16T04:01:47.208Z,0
2019-02-16T04:02:48.069Z,0
2019-02-16T04:03:48.795Z,0
2019-02-16T04:04:49.511Z,0
2019-02-16T04:05:50.281Z,0
2019-02-16T04:06:51.006Z,0
2019-02-16T04:07:51.730Z,0
2019-02-16T04:08:52.455Z,0
2019-02-16T04:09:53.171Z,0
2019-02-16T04:10:54.653Z,0
2019-02-16T04:11:55.417Z,0
2019-02-16T04:12:56.145Z,0
2019-02-16T04:13:56.890Z,0
2019-02-16T04:14:57.627Z,0
2019-02-16T04:15:58.336Z,0
2019-02-16T04:18:14.613Z,0
2019-02-16T04:19:15.366Z,0
2019-02-16T04:20:16.078Z,0
2019-02-16T04:21:16.815Z,0
2019-02-16T04:22:24.566Z,0
2019-02-16T04:23:18.305Z,0
2019-02-16T04:24:19.050Z,0
2019-02-16T04:25:19.768Z,0
2019-02-16T04:26:20.487Z,0
2019-02-16T04:27:21.366Z,0
2019-02-16T04:28:22.092Z,0
2019-02-16T04:29:22.833Z,0
2019-02-16T04:30:23.558Z,0
2019-02-16T04:31:24.280Z,0
2019-02-16T04:32:25.073Z,0
2019-02-16T04:34:41.247Z,0
2019-02-16T04:35:42.254Z,0
2019-02-16T04:36:42.994Z,0
2019-02-16T04:37:43.766Z,0
2019-02-16T04:38:44.492Z,0
2019-02-16T04:39:45.281Z,0
2019-02-16T04:40:45.995Z,0
2019-02-16T04:41:46.992Z,0
2019-02-16T04:42:47.704Z,0
2019-02-16T04:43:48.905Z,0
2019-02-16T04:44:49.623Z,0
2019-02-16T04:45:50.619Z,0
2019-02-16T04:46:51.348Z,0
2019-02-16T04:47:52.061Z,0
2019-02-16T04:48:52.777Z,0
2019-02-16T04:49:53.560Z,0
2019-02-16T04:52:09.765Z,0
2019-02-16T04:53:10.500Z,0
2019-02-16T04:54:11.220Z,0
2019-02-16T04:55:11.995Z,0
2019-02-16T04:56:12.963Z,0
2019-02-16T04:57:13.685Z,0
2019-02-16T04:58:14.681Z,0
2019-02-16T04:59:15.393Z,0
2019-02-16T05:00:16.380Z,0
2019-02-16T05:01:17.100Z,0
2019-02-16T05:02:17.889Z,0
2019-02-16T05:03:18.602Z,0
2019-02-16T05:04:19.331Z,0
2019-02-16T05:05:20.102Z,0
2019-02-16T05:06:20.875Z,0
2019-02-16T05:07:21.591Z,0
2019-02-16T05:08:22.319Z,0
2019-02-16T05:09:23.029Z,0
2019-02-16T05:10:23.807Z,0
2019-02-16T05:11:24.596Z,0
2019-02-16T05:12:25.332Z,0
2019-02-16T05:14:41.903Z,0
2019-02-16T05:15:42.614Z,0
2019-02-16T05:16:43.431Z,0
2019-02-16T05:17:44.248Z,0
2019-02-16T05:18:45.092Z,0
2019-02-16T05:19:45.955Z,0
2019-02-16T05:20:46.679Z,0
2019-02-16T05:21:47.400Z,0
2019-02-16T05:24:03.640Z,0
2019-02-16T05:25:04.368Z,0
2019-02-16T05:26:05.082Z,0
2019-02-16T05:27:05.807Z,0
2019-02-16T05:28:06.525Z,0
2019-02-16T05:29:07.289Z,0
2019-02-16T05:31:23.484Z,0
2019-02-16T05:32:24.208Z,0
2019-02-16T05:33:25.005Z,0
2019-02-16T05:34:25.782Z,0
2019-02-16T05:35:26.503Z,0
2019-02-16T05:36:27.216Z,0
2019-02-16T05:37:30.249Z,0
2019-02-16T05:39:44.185Z,0
2019-02-16T05:40:44.961Z,0
2019-02-16T05:41:45.687Z,0
2019-02-16T05:42:46.416Z,0
2019-02-16T05:43:47.128Z,0
2019-02-16T05:44:47.871Z,0
2019-02-16T05:45:48.736Z,0
2019-02-16T05:46:49.479Z,0
2019-02-16T05:47:50.178Z,0
2019-02-16T05:48:50.911Z,0
2019-02-16T05:49:51.633Z,0
2019-02-16T05:50:52.413Z,0
2019-02-16T05:51:53.186Z,0
2019-02-16T05:52:54.730Z,0
2019-02-16T05:53:54.645Z,0
2019-02-16T05:54:55.362Z,0
2019-02-16T05:55:56.085Z,0
2019-02-16T05:56:57.145Z,0
2019-02-16T05:57:57.869Z,0
2019-02-16T06:00:14.218Z,0
2019-02-16T06:01:14.972Z,0
2019-02-16T06:02:15.828Z,0
2019-02-16T06:03:16.548Z,0
2019-02-16T06:04:17.278Z,4
2019-02-16T06:05:18.002Z,4
2019-02-16T06:06:18.727Z,0
2019-02-16T06:07:19.738Z,4
2019-02-16T06:08:20.475Z,4
2019-02-16T06:09:21.200Z,8
2019-02-16T06:10:21.924Z,8
2019-02-16T06:11:22.656Z,8
2019-02-16T06:12:23.626Z,8
2019-02-16T06:13:24.455Z,8
2019-02-16T06:14:25.151Z,12
2019-02-16T06:15:25.868Z,16
2019-02-16T06:17:42.111Z,20
2019-02-16T06:18:42.845Z,24
2019-02-16T06:20:59.039Z,36
2019-02-16T06:21:59.766Z,40
2019-02-16T06:23:04.239Z,48
2019-02-16T06:24:01.264Z,56
2019-02-16T06:25:02.036Z,68
2019-02-16T06:26:02.765Z,80
2019-02-16T06:27:03.483Z,92
2019-02-16T06:28:04.260Z,108
2019-02-16T06:29:04.986Z,120
2019-02-16T06:31:21.249Z,164
2019-02-16T06:32:21.985Z,184
2019-02-16T06:33:22.757Z,208
2019-02-16T06:34:23.530Z,232
2019-02-16T06:35:24.301Z,260
2019-02-16T06:36:25.034Z,288
2019-02-16T06:38:41.222Z,356
2019-02-16T06:39:42.023Z,392
2019-02-16T06:40:42.749Z,432
2019-02-16T06:41:43.470Z,468
2019-02-16T06:42:44.200Z,504
2019-02-16T06:43:44.942Z,544
2019-02-16T06:44:45.703Z,584
2019-02-16T06:45:46.671Z,620
2019-02-16T06:46:47.407Z,664
2019-02-16T06:49:03.616Z,760
2019-02-16T06:50:04.395Z,800
2019-02-16T06:51:05.134Z,840
2019-02-16T06:52:05.875Z,884
2019-02-16T06:54:22.347Z,984
2019-02-16T06:55:23.123Z,1028
2019-02-16T06:56:23.858Z,1076
2019-02-16T06:57:24.642Z,1124
2019-02-16T06:58:25.366Z,1168
2019-02-16T06:59:26.095Z,1216
2019-02-16T07:01:42.347Z,1360
2019-02-16T07:02:43.077Z,1420
2019-02-16T07:03:43.794Z,1460
2019-02-16T07:04:44.534Z,1496
2019-02-16T07:05:45.314Z,1544
2019-02-16T07:06:46.077Z,1588
2019-02-16T07:07:46.826Z,1652
2019-02-16T07:08:47.833Z,1700
2019-02-16T07:09:48.581Z,1740
2019-02-16T07:10:49.312Z,1784
2019-02-16T07:13:05.568Z,1920
2019-02-16T07:14:06.301Z,2024
2019-02-16T07:15:07.027Z,2132
2019-02-16T07:16:07.810Z,2204
2019-02-16T07:17:08.547Z,2180
2019-02-16T07:18:09.271Z,2132
2019-02-16T07:19:10.000Z,2200
2019-02-16T07:21:26.276Z,2380
2019-02-16T07:23:42.484Z,2504
2019-02-16T07:24:43.260Z,2544
2019-02-16T07:25:44.045Z,2588
2019-02-16T07:26:44.774Z,2704
2019-02-16T07:27:45.518Z,2848
2019-02-16T07:28:46.239Z,2852
2019-02-16T07:29:47.213Z,2820
2019-02-16T07:30:48.000Z,2836
2019-02-16T07:31:49.036Z,2852
2019-02-16T07:32:49.773Z,2900
2019-02-16T07:33:50.503Z,3064
2019-02-16T07:36:06.833Z,3444
2019-02-16T07:37:07.557Z,3628
2019-02-16T07:38:08.291Z,3860
2019-02-16T07:39:09.015Z,3736
2019-02-16T07:40:09.737Z,3628
2019-02-16T07:41:10.567Z,3832
2019-02-16T07:42:11.297Z,4132
2019-02-16T07:43:12.031Z,4232
2019-02-16T07:44:12.831Z,4104
2019-02-16T07:45:13.548Z,4100
2019-02-16T07:46:14.341Z,4608
2019-02-16T07:47:15.065Z,4804
2019-02-16T07:48:15.803Z,4788
2019-02-16T07:49:16.525Z,4724
2019-02-16T07:50:17.256Z,4960
2019-02-16T07:51:18.037Z,5144
2019-02-16T07:53:34.246Z,4072
2019-02-16T07:54:34.973Z,4264
2019-02-16T07:55:35.703Z,4284
2019-02-16T07:56:36.491Z,4240
2019-02-16T07:57:37.238Z,3972
2019-02-16T07:58:37.969Z,3920
2019-02-16T07:59:38.695Z,3912
2019-02-16T08:00:39.430Z,3932
2019-02-16T08:01:40.317Z,3960
2019-02-16T08:02:41.045Z,3980
2019-02-16T08:03:41.779Z,3988
2019-02-16T08:05:58.016Z,4016
2019-02-16T08:08:14.285Z,4044
2019-02-16T08:09:15.022Z,4072
2019-02-16T08:10:15.739Z,4100
2019-02-16T08:11:16.468Z,4120
2019-02-16T08:13:32.723Z,4152
2019-02-16T08:14:33.464Z,4176
2019-02-16T08:15:34.189Z,4212
2019-02-16T08:16:34.924Z,4256
2019-02-16T08:17:35.664Z,4316
2019-02-16T08:18:36.442Z,4364
2019-02-16T08:20:52.707Z,4464
2019-02-16T08:21:53.439Z,4508
2019-02-16T08:22:54.166Z,4576
2019-02-16T08:23:54.905Z,4644
2019-02-16T08:24:55.634Z,4708
2019-02-16T08:25:56.417Z,4764
2019-02-16T08:26:57.148Z,4808
2019-02-16T08:27:57.878Z,4836
2019-02-16T08:28:58.610Z,4860
2019-02-16T08:29:59.498Z,4876
2019-02-16T08:31:00.224Z,4844
2019-02-16T08:33:16.435Z,4776
2019-02-16T08:34:17.162Z,4756
2019-02-16T08:35:17.947Z,4772
2019-02-16T08:36:18.736Z,4836
2019-02-16T08:38:34.955Z,5176
2019-02-16T08:40:51.262Z,5600
2019-02-16T08:43:07.486Z,7952
2019-02-16T08:44:08.211Z,7760
2019-02-16T08:45:08.944Z,7716
2019-02-16T08:46:09.718Z,7232
2019-02-16T08:47:10.488Z,7572
2019-02-16T08:48:11.216Z,8368
2019-02-16T08:49:11.957Z,9264
2019-02-16T08:51:28.315Z,7680
2019-02-16T08:52:29.047Z,8072
2019-02-16T08:56:00.735Z,7448
2019-02-16T08:57:01.527Z,7812
2019-02-16T08:59:17.742Z,7068
2019-02-16T09:00:18.470Z,6820
2019-02-16T09:01:19.207Z,7136
2019-02-16T09:02:19.989Z,9708
2019-02-16T09:03:20.730Z,9980
2019-02-16T09:04:21.463Z,8784
2019-02-16T09:05:22.187Z,9356
2019-02-16T09:06:22.941Z,10252
2019-02-16T09:08:39.312Z,9992
2019-02-16T09:09:40.085Z,11224
2019-02-16T09:10:40.824Z,11940
2019-02-16T09:11:41.552Z,12588
2019-02-16T09:12:42.279Z,13476
2019-02-16T09:13:43.070Z,12852
2019-02-16T09:14:43.806Z,12584
2019-02-16T09:15:44.544Z,11336
2019-02-16T09:18:00.770Z,10320
2019-02-16T09:19:01.558Z,11536
2019-02-16T09:20:02.335Z,12548
2019-02-16T09:21:03.078Z,10012
2019-02-16T09:22:03.801Z,8820
2019-02-16T09:23:04.524Z,9680
2019-02-16T09:24:05.266Z,9976
2019-02-16T09:25:06.060Z,9724
2019-02-16T09:28:37.959Z,11260
2019-02-16T09:30:54.232Z,9388
2019-02-16T09:31:54.971Z,8960
2019-02-16T09:32:55.703Z,8712
2019-02-16T09:33:56.440Z,7912
2019-02-16T09:34:57.166Z,8956
2019-02-16T09:35:58.220Z,9060
2019-02-16T09:38:14.493Z,13512
2019-02-16T09:39:15.217Z,14696
2019-02-16T09:40:15.956Z,16160
2019-02-16T09:41:16.703Z,18144
2019-02-16T09:42:17.444Z,22400
2019-02-16T09:43:18.240Z,24480
2019-02-16T09:44:19.281Z,24192
2019-02-16T09:45:20.027Z,22688
2019-02-16T09:46:20.758Z,22816
2019-02-16T09:47:21.492Z,23168
2019-02-16T09:48:22.381Z,22848
2019-02-16T09:50:38.607Z,25920
2019-02-16T09:51:39.344Z,25184
2019-02-16T09:52:40.078Z,25728
2019-02-16T09:53:40.860Z,25984
2019-02-16T09:55:57.094Z,23488
2019-02-16T09:56:57.836Z,25408
2019-02-16T09:57:58.626Z,26848
2019-02-16T09:58:59.361Z,26336
2019-02-16T10:00:00.240Z,24832
2019-02-16T10:01:00.862Z,23136
2019-02-16T10:02:01.608Z,22912
2019-02-16T10:04:18.002Z,27168
2019-02-16T10:05:18.743Z,25888
2019-02-16T10:06:19.484Z,26144
2019-02-16T10:07:20.228Z,27424
2019-02-16T10:08:20.974Z,27584
2019-02-16T10:09:21.757Z,28320
2019-02-16T10:11:37.974Z,30944
2019-02-16T10:12:38.709Z,28064
2019-02-16T10:13:39.455Z,26976
2019-02-16T10:14:40.236Z,28576
2019-02-16T10:15:40.968Z,30432
2019-02-16T10:16:41.709Z,29248
2019-02-16T10:17:42.446Z,27040
2019-02-16T10:18:43.175Z,22048
2019-02-16T10:20:59.465Z,21824
2019-02-16T10:22:00.211Z,20448
2019-02-16T10:23:00.962Z,27616
2019-02-16T10:24:01.745Z,25760
2019-02-16T10:25:02.483Z,27328
2019-02-16T10:28:34.259Z,25600
2019-02-16T10:29:35.004Z,24448
2019-02-16T10:31:51.253Z,18144
2019-02-16T10:32:52.016Z,17152
2019-02-16T10:33:52.891Z,13656
2019-02-16T10:34:53.643Z,17056
2019-02-16T10:35:54.395Z,24960
2019-02-16T10:36:55.134Z,19520
2019-02-16T10:37:55.869Z,15444
2019-02-16T10:38:56.726Z,15344
2019-02-16T10:41:12.969Z,14680
2019-02-16T10:42:13.702Z,13052
2019-02-16T10:43:14.437Z,10992
2019-02-16T10:44:15.227Z,10724
2019-02-16T10:45:15.977Z,11448
2019-02-16T10:46:16.769Z,10460
2019-02-16T10:47:17.513Z,10372
2019-02-16T10:48:18.245Z,11708
2019-02-16T10:49:18.999Z,11460
2019-02-16T10:51:35.386Z,10644
2019-02-16T10:52:36.127Z,10536
2019-02-16T10:53:36.890Z,12364
2019-02-16T10:54:37.639Z,15616
2019-02-16T10:55:38.379Z,17728
2019-02-16T10:56:39.164Z,19360
2019-02-16T10:57:39.959Z,17152
2019-02-16T10:59:56.198Z,17888
2019-02-16T11:00:56.935Z,18432
2019-02-16T11:01:57.673Z,22336
2019-02-16T11:02:58.563Z,22080
2019-02-16T11:03:59.310Z,20896
2019-02-16T11:05:00.053Z,21216
2019-02-16T11:06:00.785Z,19584
2019-02-16T11:08:17.069Z,23136
2019-02-16T11:09:17.862Z,23200
2019-02-16T11:10:18.602Z,25056
2019-02-16T11:11:19.341Z,26976
2019-02-16T11:12:20.139Z,25344
2019-02-16T11:13:20.943Z,26016
2019-02-16T11:14:21.677Z,27488
2019-02-16T11:15:22.420Z,26304
2019-02-16T11:16:23.169Z,26624
2019-02-16T11:18:39.552Z,19840
2019-02-16T11:19:40.300Z,22432
2019-02-16T11:20:41.050Z,19680
2019-02-16T11:21:41.799Z,20288
2019-02-16T11:22:42.527Z,21984
2019-02-16T11:23:45.357Z,23904
2019-02-16T11:25:59.605Z,20224
2019-02-16T11:27:00.352Z,22336
2019-02-16T11:28:01.097Z,20416
2019-02-16T11:29:01.834Z,19808
2019-02-16T11:30:02.722Z,19712
2019-02-16T11:31:03.471Z,22816
2019-02-16T11:32:04.202Z,18016
2019-02-16T11:33:04.949Z,23232
2019-02-16T11:34:05.690Z,20672
2019-02-16T11:36:22.071Z,19936
2019-02-16T11:37:22.818Z,22592
2019-02-16T11:38:23.557Z,18176
2019-02-16T11:41:55.525Z,14524
2019-02-16T11:42:56.263Z,11968
2019-02-16T11:43:57.010Z,11380
2019-02-16T11:44:57.750Z,13660
2019-02-16T11:45:58.667Z,18176
2019-02-16T11:48:15.126Z,20896
2019-02-16T11:49:15.871Z,19520
2019-02-16T11:50:16.604Z,19904
2019-02-16T11:51:17.394Z,17536
2019-02-16T11:52:18.302Z,15152
2019-02-16T11:53:19.091Z,16672
2019-02-16T11:54:19.835Z,20256
2019-02-16T11:55:20.575Z,20768
2019-02-16T11:57:36.809Z,19648
2019-02-16T11:58:37.854Z,18592
2019-02-16T11:59:39.335Z,19328
2019-02-16T12:00:40.353Z,22624
2019-02-16T12:01:40.927Z,22784
2019-02-16T12:02:41.583Z,24128
2019-02-16T12:03:42.443Z,27008
2019-02-16T12:04:43.241Z,28352
2019-02-16T12:05:43.984Z,24928
2019-02-16T12:06:44.732Z,20384
2019-02-16T12:07:45.477Z,22976
2019-02-16T12:08:47.262Z,26080
2019-02-16T12:09:49.542Z,23296
2019-02-16T12:10:50.634Z,21120
2019-02-16T12:11:51.436Z,23328
2019-02-16T12:14:07.995Z,27616
2019-02-16T12:15:10.055Z,26528
2019-02-16T12:16:11.619Z,25376
2019-02-16T12:17:12.908Z,24768
2019-02-16T12:18:13.827Z,24928
2019-02-16T12:19:14.575Z,23392
2019-02-16T12:20:15.394Z,19584
2019-02-16T12:21:16.136Z,17056
2019-02-16T12:22:16.928Z,13868
2019-02-16T12:23:17.681Z,10912
2019-02-16T12:24:18.427Z,15176
2019-02-16T12:25:19.324Z,16964
2019-02-16T12:26:20.064Z,16304
2019-02-16T12:27:20.802Z,15088
2019-02-16T12:28:21.707Z,18720
2019-02-16T12:29:22.421Z,19456
2019-02-16T12:30:23.202Z,21120
2019-02-16T12:31:23.945Z,20480
2019-02-16T12:32:24.698Z,20992
2019-02-16T12:34:41.882Z,22880
2019-02-16T12:35:42.670Z,25344
2019-02-16T12:36:43.424Z,25344
2019-02-16T12:37:44.214Z,26336
2019-02-16T12:38:44.964Z,27328
2019-02-16T12:39:45.701Z,24288
2019-02-16T12:40:46.443Z,23072
2019-02-16T12:41:47.237Z,22976
2019-02-16T12:42:48.040Z,17504
2019-02-16T12:45:04.331Z,19872
2019-02-16T12:46:05.065Z,22848
2019-02-16T12:47:05.809Z,20224
2019-02-16T12:48:06.542Z,20192
2019-02-16T12:49:07.585Z,19936
2019-02-16T12:50:08.332Z,20384
2019-02-16T12:51:09.072Z,21024
2019-02-16T12:53:25.467Z,24992
2019-02-16T12:55:41.689Z,23328
2019-02-16T12:56:42.682Z,24192
2019-02-16T12:57:43.432Z,23552
2019-02-16T12:58:44.422Z,18880
2019-02-16T12:59:45.165Z,17152
2019-02-16T13:00:45.905Z,20128
2019-02-16T13:01:46.663Z,22560
2019-02-16T13:02:47.855Z,20704
2019-02-16T13:03:49.778Z,19104
2019-02-16T13:04:50.960Z,20128
2019-02-16T13:05:51.683Z,18336
2019-02-16T13:08:08.009Z,18688
2019-02-16T13:09:08.901Z,17440
2019-02-16T13:10:09.645Z,15024
2019-02-16T13:11:10.426Z,14832
2019-02-16T13:12:11.142Z,16408
2019-02-16T13:13:11.892Z,16200
2019-02-16T13:14:12.797Z,17376
2019-02-16T13:15:13.878Z,16716
2019-02-16T13:16:14.703Z,17224
2019-02-16T13:17:15.454Z,15176
2019-02-16T13:18:16.187Z,16260
2019-02-16T13:19:16.993Z,18432
2019-02-16T13:20:17.743Z,14724
2019-02-16T13:21:18.489Z,15136
2019-02-16T13:22:19.242Z,16612
2019-02-16T13:23:20.001Z,15820
2019-02-16T13:24:20.796Z,13216
2019-02-16T13:25:24.314Z,12244
2019-02-16T13:26:22.639Z,14876
2019-02-16T13:27:23.849Z,11972
2019-02-16T13:28:24.637Z,11592
2019-02-16T13:30:40.970Z,13240
2019-02-16T13:31:41.752Z,13344
2019-02-16T13:32:42.511Z,13428
2019-02-16T13:33:43.254Z,11600
2019-02-16T13:34:44.031Z,11480
2019-02-16T13:35:44.764Z,10940
2019-02-16T13:36:45.822Z,10380
2019-02-16T13:37:46.569Z,10068
2019-02-16T13:38:47.307Z,8936
2019-02-16T13:39:48.041Z,8380
2019-02-16T13:40:48.773Z,7560
2019-02-16T13:41:49.669Z,7872
2019-02-16T13:42:50.406Z,8848
2019-02-16T13:45:06.650Z,8428
2019-02-16T13:46:07.827Z,8276
2019-02-16T13:47:08.617Z,8164
2019-02-16T13:49:25.353Z,7864
2019-02-16T13:51:41.626Z,7256
2019-02-16T13:53:57.913Z,5952
2019-02-16T13:54:58.657Z,6528
2019-02-16T13:55:59.414Z,6512
2019-02-16T13:57:00.151Z,6716
2019-02-16T13:58:00.938Z,6888
2019-02-16T14:00:17.213Z,6452
2019-02-16T14:01:18.016Z,6164
2019-02-16T14:02:18.704Z,6496
2019-02-16T14:03:19.453Z,7016
2019-02-16T14:04:20.245Z,7332
2019-02-16T14:05:21.062Z,7792
2019-02-16T14:06:21.793Z,7808
2019-02-16T14:08:38.303Z,8256
2019-02-16T14:09:39.150Z,7664
2019-02-16T14:10:40.702Z,7028
2019-02-16T14:11:41.546Z,7052
2019-02-16T14:12:42.274Z,7940
2019-02-16T14:13:43.021Z,8816
2019-02-16T14:14:43.804Z,8340
2019-02-16T14:15:44.591Z,8548
2019-02-16T14:16:46.088Z,7972
2019-02-16T14:17:47.808Z,7332
2019-02-16T14:18:48.675Z,7312
2019-02-16T14:19:49.417Z,6964
2019-02-16T14:20:50.202Z,6952
2019-02-16T14:21:50.944Z,7468
2019-02-16T14:22:51.683Z,7844
2019-02-16T14:23:52.425Z,7592
2019-02-16T14:24:53.167Z,7200
2019-02-16T14:25:53.970Z,7248
2019-02-16T14:26:54.711Z,7132
2019-02-16T14:27:55.447Z,7252
2019-02-16T14:30:11.673Z,6964
2019-02-16T14:31:12.468Z,6928
2019-02-16T14:32:13.253Z,7084
2019-02-16T14:33:14.005Z,7088
2019-02-16T14:34:14.749Z,7116
2019-02-16T14:35:15.740Z,7080
2019-02-16T14:36:16.822Z,6924
2019-02-16T14:37:17.566Z,6680
2019-02-16T14:38:19.633Z,6560
2019-02-16T14:39:19.050Z,6432
2019-02-16T14:40:19.784Z,6508
2019-02-16T14:41:20.580Z,6752
2019-02-16T14:42:21.317Z,6528
2019-02-16T14:43:22.039Z,6252
2019-02-16T14:44:22.792Z,5932
2019-02-16T14:45:23.527Z,6004
2019-02-16T14:46:24.858Z,5884
2019-02-16T14:48:41.149Z,5632
2019-02-16T14:49:41.891Z,5968
2019-02-16T14:50:42.618Z,6580
2019-02-16T14:51:43.417Z,6436
2019-02-16T14:52:44.216Z,6200
2019-02-16T14:53:45.146Z,6084
2019-02-16T14:56:01.386Z,5252
2019-02-16T14:57:02.186Z,5016
2019-02-16T14:58:04.192Z,4868
2019-02-16T14:59:05.528Z,4744
2019-02-16T15:01:22.056Z,4512
2019-02-16T15:02:22.796Z,4472
2019-02-16T15:03:23.601Z,4480
2019-02-16T15:04:24.396Z,4504
2019-02-16T15:05:25.201Z,4496
2019-02-16T15:07:41.584Z,4464
2019-02-16T15:08:42.321Z,4328
2019-02-16T15:09:43.084Z,4300
2019-02-16T15:10:43.821Z,4264
2019-02-16T15:11:44.557Z,4260
2019-02-16T15:12:45.372Z,4252
2019-02-16T15:13:46.153Z,4240
2019-02-16T15:14:46.920Z,4200
2019-02-16T15:15:47.651Z,4172
2019-02-16T15:18:03.954Z,4088
2019-02-16T15:19:04.683Z,4040
2019-02-16T15:20:05.423Z,3972
2019-02-16T15:21:06.163Z,3924
2019-02-16T15:22:06.910Z,3884
2019-02-16T15:23:07.705Z,3844
2019-02-16T15:24:08.506Z,3796
2019-02-16T15:26:28.557Z,3708
2019-02-16T15:27:25.475Z,3704
2019-02-16T15:28:26.262Z,3680
2019-02-16T15:29:27.243Z,3664
2019-02-16T15:30:27.997Z,3652
2019-02-16T15:31:28.723Z,3624
2019-02-16T15:32:29.470Z,3604
2019-02-16T15:34:45.742Z,3544
2019-02-16T15:35:46.475Z,3504
2019-02-16T15:36:47.207Z,3464
2019-02-16T15:37:47.947Z,3424
2019-02-16T15:38:48.686Z,3392
2019-02-16T15:41:04.982Z,3276
2019-02-16T15:42:05.712Z,3220
2019-02-16T15:43:06.447Z,3152
2019-02-16T15:44:07.182Z,3080
2019-02-16T15:45:07.924Z,3016
2019-02-16T15:46:08.713Z,2964
2019-02-16T15:48:25.049Z,2856
2019-02-16T15:50:41.330Z,2740
2019-02-16T15:52:57.602Z,2588
2019-02-16T15:53:58.347Z,2524
2019-02-16T15:54:59.147Z,2456
2019-02-16T15:55:59.869Z,2368
2019-02-16T15:57:00.614Z,2272
2019-02-16T15:59:16.877Z,2100
2019-02-16T16:00:17.615Z,2032
2019-02-16T16:01:18.375Z,1960
2019-02-16T16:02:19.080Z,1888
2019-02-16T16:03:19.830Z,1824